createdAt,value
2018-05-26T00:00:50.012Z,74.82
2018-05-26T00:01:49.948Z,74.33
2018-05-26T00:02:49.974Z,74.24
2018-05-26T00:03:49.988Z,74.24
2018-05-26T00:04:49.970Z,74.72
2018-05-26T00:05:50.066Z,74.33
2018-05-26T00:06:50.009Z,74.24
2018-05-26T00:07:50.014Z,75.01
2018-05-26T00:08:50.016Z,74.91
2018-05-26T00:09:50.069Z,74.88
2018-05-26T00:10:50.035Z,75.07
2018-05-26T00:11:50.797Z,74.97
2018-05-26T00:12:50.049Z,74.68
2018-05-26T00:13:50.018Z,75.65
2018-05-26T00:14:50.102Z,75.55
2018-05-26T00:15:50.087Z,74.68
2018-05-26T00:16:49.998Z,75.16
2018-05-26T00:17:49.889Z,75.36
2018-05-26T00:18:50.028Z,74.72
2018-05-26T00:19:49.979Z,75.65
2018-05-26T00:20:50.089Z,76.13
2018-05-26T00:21:50.077Z,76.13
2018-05-26T00:22:49.947Z,76.13
2018-05-26T00:23:50.104Z,76.13
2018-05-26T00:24:50.100Z,75.93
2018-05-26T00:25:50.103Z,76.03
2018-05-26T00:26:50.138Z,76.23
2018-05-26T00:27:50.619Z,76.42
2018-05-26T00:28:50.108Z,76.61
2018-05-26T00:29:50.123Z,76.32
2018-05-26T00:30:50.127Z,76.80
2018-05-26T00:31:50.133Z,76.42
2018-05-26T00:32:50.173Z,76.51
2018-05-26T00:33:50.158Z,77.09
2018-05-26T00:34:50.138Z,76.80
2018-05-26T00:35:50.171Z,76.96
2018-05-26T00:36:50.055Z,77.00
2018-05-26T00:37:51.936Z,77.09
2018-05-26T00:38:50.167Z,77.00
2018-05-26T00:39:50.130Z,76.90
2018-05-26T00:40:50.154Z,77.00
2018-05-26T00:41:50.150Z,77.09
2018-05-26T00:42:50.112Z,76.90
2018-05-26T00:43:49.984Z,77.19
2018-05-26T00:44:49.963Z,77.09
2018-05-26T00:45:50.013Z,77.19
2018-05-26T00:46:50.044Z,77.09
2018-05-26T00:47:50.084Z,77.00
2018-05-26T00:48:50.115Z,77.00
2018-05-26T00:49:49.998Z,77.19
2018-05-26T00:50:50.125Z,77.19
2018-05-26T00:51:50.122Z,77.09
2018-05-26T00:52:50.038Z,77.28
2018-05-26T00:53:50.133Z,77.19
2018-05-26T00:54:50.446Z,77.58
2018-05-26T00:55:50.472Z,77.28
2018-05-26T00:56:50.428Z,78.21
2018-05-26T00:57:50.445Z,78.02
2018-05-26T00:58:50.412Z,78.11
2018-05-26T00:59:49.880Z,78.02
2018-05-26T01:00:50.453Z,78.11
2018-05-26T01:01:50.437Z,77.73
2018-05-26T01:03:50.443Z,78.21
2018-05-26T01:04:50.474Z,77.73
2018-05-26T01:05:50.449Z,77.53
2018-05-26T01:06:50.429Z,77.63
2018-05-26T01:07:50.443Z,77.15
2018-05-26T01:08:50.650Z,77.15
2018-05-26T01:09:50.451Z,77.19
2018-05-26T01:10:50.432Z,76.86
2018-05-26T01:11:50.396Z,77.15
2018-05-26T01:12:50.411Z,76.67
2018-05-26T01:13:50.393Z,77.15
2018-05-26T01:14:50.373Z,77.53
2018-05-26T01:15:50.430Z,77.34
2018-05-26T01:16:50.448Z,77.63
2018-05-26T01:17:50.437Z,78.02
2018-05-26T01:18:50.489Z,77.53
2018-05-26T01:19:50.514Z,77.44
2018-05-26T01:20:50.390Z,77.92
2018-05-26T01:21:50.482Z,77.73
2018-05-26T01:22:50.437Z,78.21
2018-05-26T01:23:52.277Z,77.63
2018-05-26T01:24:50.456Z,78.11
2018-05-26T01:25:50.444Z,77.73
2018-05-26T01:26:50.435Z,77.73
2018-05-26T01:27:50.458Z,77.73
2018-05-26T01:28:50.484Z,77.92
2018-05-26T01:29:50.454Z,78.59
2018-05-26T01:30:50.449Z,78.11
2018-05-26T01:31:50.485Z,78.40
2018-05-26T01:32:50.449Z,78.50
2018-05-26T01:33:49.938Z,78.59
2018-05-26T01:34:50.501Z,78.36
2018-05-26T01:35:50.499Z,78.65
2018-05-26T01:36:50.485Z,78.85
2018-05-26T01:37:50.450Z,78.75
2018-05-26T01:38:50.472Z,78.36
2018-05-26T01:39:49.872Z,78.56
2018-05-26T01:40:50.441Z,78.36
2018-05-26T01:41:50.447Z,79.03
2018-05-26T01:42:50.411Z,79.13
2018-05-26T01:43:50.475Z,78.56
2018-05-26T01:44:50.438Z,79.13
2018-05-26T01:45:50.446Z,78.46
2018-05-26T01:46:50.438Z,79.03
2018-05-26T01:47:50.453Z,79.03
2018-05-26T01:48:50.427Z,79.03
2018-05-26T01:49:50.456Z,79.13
2018-05-26T01:50:50.431Z,79.03
2018-05-26T01:51:50.437Z,78.75
2018-05-26T01:52:50.435Z,79.33
2018-05-26T01:53:50.495Z,79.13
2018-05-26T01:54:50.365Z,79.23
2018-05-26T01:55:50.429Z,79.23
2018-05-26T01:56:50.433Z,79.03
2018-05-26T01:57:50.451Z,79.33
2018-05-26T01:58:50.431Z,79.71
2018-05-26T01:59:50.469Z,79.33
2018-05-26T02:00:50.476Z,79.52
2018-05-26T02:01:50.437Z,79.52
2018-05-26T02:02:50.454Z,80.25
2018-05-26T02:03:50.420Z,80.29
2018-05-26T02:04:50.481Z,80.29
2018-05-26T02:05:49.971Z,80.25
2018-05-26T02:06:50.432Z,80.29
2018-05-26T02:07:50.494Z,80.19
2018-05-26T02:08:50.491Z,80.35
2018-05-26T02:09:50.431Z,80.63
2018-05-26T02:10:50.375Z,80.73
2018-05-26T02:11:50.454Z,81.12
2018-05-26T02:12:50.439Z,80.48
2018-05-26T02:13:50.436Z,81.21
2018-05-26T02:14:50.473Z,81.21
2018-05-26T02:15:50.504Z,81.30
2018-05-26T02:16:50.429Z,80.38
2018-05-26T02:17:52.665Z,80.73
2018-05-26T02:18:50.481Z,80.54
2018-05-26T02:19:52.665Z,80.38
2018-05-26T02:20:50.478Z,80.44
2018-05-26T02:21:50.463Z,80.35
2018-05-26T02:22:50.485Z,80.35
2018-05-26T02:23:50.498Z,80.35
2018-05-26T02:24:50.454Z,80.35
2018-05-26T02:25:50.421Z,80.63
2018-05-26T02:26:50.435Z,80.63
2018-05-26T02:27:52.258Z,80.44
2018-05-26T02:28:50.476Z,80.54
2018-05-26T02:29:50.466Z,80.54
2018-05-26T02:30:50.471Z,79.86
2018-05-26T02:31:50.029Z,80.25
2018-05-26T02:32:50.507Z,80.25
2018-05-26T02:33:50.509Z,80.54
2018-05-26T02:34:50.477Z,80.73
2018-05-26T02:35:50.487Z,80.73
2018-05-26T02:36:50.506Z,80.54
2018-05-26T02:37:50.493Z,80.54
2018-05-26T02:38:50.436Z,80.63
2018-05-26T02:39:50.477Z,80.35
2018-05-26T02:40:50.437Z,80.44
2018-05-26T02:41:50.413Z,80.63
2018-05-26T02:42:50.489Z,80.44
2018-05-26T02:43:50.447Z,80.54
2018-05-26T02:44:50.474Z,80.54
2018-05-26T02:45:50.481Z,80.73
2018-05-26T02:46:50.490Z,80.63
2018-05-26T02:47:50.467Z,80.44
2018-05-26T02:48:50.483Z,81.21
2018-05-26T02:49:50.501Z,81.21
2018-05-26T02:50:50.490Z,80.73
2018-05-26T02:51:50.476Z,81.21
2018-05-26T02:52:50.483Z,81.21
2018-05-26T02:53:50.492Z,81.21
2018-05-26T02:54:50.477Z,81.02
2018-05-26T02:55:50.473Z,80.83
2018-05-26T02:56:50.490Z,81.21
2018-05-26T02:57:50.478Z,80.73
2018-05-26T02:58:50.509Z,80.92
2018-05-26T02:59:50.513Z,81.21
2018-05-26T03:00:50.477Z,81.21
2018-05-26T03:01:50.469Z,80.63
2018-05-26T03:03:50.487Z,80.35
2018-05-26T03:04:50.474Z,80.54
2018-05-26T03:05:50.493Z,80.44
2018-05-26T03:06:50.486Z,80.54
2018-05-26T03:07:50.468Z,81.21
2018-05-26T03:08:50.469Z,80.69
2018-05-26T03:09:50.468Z,81.12
2018-05-26T03:10:50.496Z,80.63
2018-05-26T03:11:50.489Z,81.02
2018-05-26T03:12:50.535Z,80.63
2018-05-26T03:13:50.503Z,81.27
2018-05-26T03:14:50.504Z,80.50
2018-05-26T03:15:50.508Z,80.88
2018-05-26T03:16:50.478Z,80.98
2018-05-26T03:17:50.493Z,81.17
2018-05-26T03:18:50.062Z,81.37
2018-05-26T03:19:50.502Z,81.27
2018-05-26T03:20:50.494Z,80.88
2018-05-26T03:21:50.508Z,81.27
2018-05-26T03:22:50.491Z,81.37
2018-05-26T03:23:50.554Z,81.02
2018-05-26T03:24:50.573Z,80.69
2018-05-26T03:25:50.509Z,80.98
2018-05-26T03:26:50.519Z,81.46
2018-05-26T03:27:50.537Z,80.79
2018-05-26T03:28:50.436Z,81.37
2018-05-26T03:29:50.467Z,80.88
2018-05-26T03:30:50.440Z,81.37
2018-05-26T03:31:50.472Z,80.98
2018-05-26T03:32:50.480Z,81.46
2018-05-26T03:33:50.469Z,81.17
2018-05-26T03:34:50.472Z,81.46
2018-05-26T03:35:50.473Z,80.88
2018-05-26T03:36:50.500Z,81.46
2018-05-26T03:37:50.468Z,81.27
2018-05-26T03:38:50.494Z,81.17
2018-05-26T03:39:50.449Z,82.04
2018-05-26T03:40:50.493Z,81.84
2018-05-26T03:41:50.461Z,80.88
2018-05-26T03:42:50.493Z,81.27
2018-05-26T03:43:50.485Z,81.37
2018-05-26T03:44:50.482Z,81.27
2018-05-26T03:45:50.549Z,81.94
2018-05-26T03:46:50.494Z,81.94
2018-05-26T03:47:50.534Z,81.75
2018-05-26T03:48:50.569Z,81.65
2018-05-26T03:49:50.499Z,81.75
2018-05-26T03:50:50.568Z,81.94
2018-05-26T03:51:50.484Z,81.75
2018-05-26T03:52:50.515Z,82.23
2018-05-26T03:53:50.554Z,81.84
2018-05-26T03:54:50.518Z,81.94
2018-05-26T03:55:50.523Z,81.65
2018-05-26T03:56:50.445Z,81.65
2018-05-26T03:57:50.489Z,82.14
2018-05-26T03:58:50.503Z,82.42
2018-05-26T03:59:50.505Z,82.04
2018-05-26T04:00:50.492Z,82.81
2018-05-26T04:01:50.472Z,82.61
2018-05-26T04:02:50.519Z,81.84
2018-05-26T04:03:50.513Z,82.71
2018-05-26T04:04:50.490Z,82.52
2018-05-26T04:05:50.529Z,82.14
2018-05-26T04:06:50.705Z,81.84
2018-05-26T04:07:50.491Z,82.42
2018-05-26T04:08:50.522Z,82.76
2018-05-26T04:09:50.513Z,83.44
2018-05-26T04:10:50.521Z,82.52
2018-05-26T04:11:50.520Z,82.42
2018-05-26T04:12:50.529Z,82.14
2018-05-26T04:13:50.492Z,82.23
2018-05-26T04:14:50.516Z,82.32
2018-05-26T04:15:50.443Z,82.32
2018-05-26T04:16:50.525Z,82.52
2018-05-26T04:17:50.537Z,82.42
2018-05-26T04:18:50.548Z,82.23
2018-05-26T04:19:50.545Z,83.09
2018-05-26T04:20:50.490Z,82.71
2018-05-26T04:21:50.575Z,82.90
2018-05-26T04:22:51.058Z,82.81
2018-05-26T04:23:50.558Z,82.23
2018-05-26T04:24:50.614Z,82.42
2018-05-26T04:25:50.554Z,82.52
2018-05-26T04:26:50.560Z,82.61
2018-05-26T04:27:50.259Z,82.32
2018-05-26T04:28:50.517Z,82.42
2018-05-26T04:29:50.550Z,82.14
2018-05-26T04:30:50.607Z,82.52
2018-05-26T04:31:50.469Z,82.90
2018-05-26T04:32:50.559Z,83.09
2018-05-26T04:33:50.574Z,82.90
2018-05-26T04:34:50.561Z,82.61
2018-05-26T04:35:52.524Z,83.09
2018-05-26T04:36:50.508Z,83.29
2018-05-26T04:37:50.802Z,83.09
2018-05-26T04:38:50.123Z,83.00
2018-05-26T04:39:50.526Z,82.90
2018-05-26T04:40:50.515Z,82.71
2018-05-26T04:41:50.587Z,82.61
2018-05-26T04:42:50.584Z,83.09
2018-05-26T04:43:50.705Z,82.90
2018-05-26T04:44:50.556Z,82.52
2018-05-26T04:45:52.722Z,82.61
2018-05-26T04:46:50.602Z,82.81
2018-05-26T04:47:50.703Z,83.00
2018-05-26T04:48:50.610Z,82.71
2018-05-26T04:49:50.637Z,82.56
2018-05-26T04:50:50.640Z,82.85
2018-05-26T04:51:50.666Z,82.71
2018-05-26T04:52:50.580Z,82.52
2018-05-26T04:53:50.674Z,82.90
2018-05-26T04:54:50.585Z,83.00
2018-05-26T04:55:50.529Z,82.61
2018-05-26T04:56:50.509Z,81.79
2018-05-26T04:57:50.569Z,81.79
2018-05-26T04:58:50.555Z,81.88
2018-05-26T04:59:50.538Z,81.21
2018-05-26T05:00:50.545Z,81.12
2018-05-26T05:01:50.531Z,81.88
2018-05-26T05:02:50.581Z,81.30
2018-05-26T05:03:50.530Z,81.60
2018-05-26T05:04:50.584Z,81.79
2018-05-26T05:05:50.475Z,81.88
2018-05-26T05:06:50.550Z,81.21
2018-05-26T05:07:50.580Z,81.30
2018-05-26T05:08:50.579Z,81.02
2018-05-26T05:09:50.584Z,81.50
2018-05-26T05:10:50.599Z,81.21
2018-05-26T05:11:50.591Z,81.02
2018-05-26T05:12:50.614Z,81.30
2018-05-26T05:13:50.621Z,80.73
2018-05-26T05:14:50.660Z,80.63
2018-05-26T05:15:50.604Z,80.54
2018-05-26T05:16:50.628Z,80.25
2018-05-26T05:17:50.674Z,80.77
2018-05-26T05:18:50.720Z,80.77
2018-05-26T05:19:50.545Z,80.87
2018-05-26T05:20:50.533Z,81.50
2018-05-26T05:21:50.565Z,81.02
2018-05-26T05:22:50.564Z,81.02
2018-05-26T05:23:50.540Z,81.21
2018-05-26T05:24:50.561Z,81.06
2018-05-26T05:25:50.539Z,81.25
2018-05-26T05:26:50.632Z,80.96
2018-05-26T05:27:50.551Z,80.96
2018-05-26T05:28:50.600Z,81.06
2018-05-26T05:29:50.555Z,81.21
2018-05-26T05:30:50.560Z,81.06
2018-05-26T05:31:50.646Z,81.25
2018-05-26T05:32:50.545Z,80.58
2018-05-26T05:33:50.588Z,80.87
2018-05-26T05:34:50.884Z,80.19
2018-05-26T05:35:50.352Z,80.58
2018-05-26T05:36:50.233Z,79.71
2018-05-26T05:37:50.638Z,79.71
2018-05-26T05:38:50.686Z,79.61
2018-05-26T05:39:50.640Z,80.00
2018-05-26T05:40:50.652Z,80.10
2018-05-26T05:41:50.686Z,80.00
2018-05-26T05:42:50.753Z,79.81
2018-05-26T05:43:50.658Z,80.10
2018-05-26T05:44:50.682Z,79.43
2018-05-26T05:45:50.707Z,78.94
2018-05-26T05:46:50.835Z,79.23
2018-05-26T05:47:50.786Z,79.03
2018-05-26T05:48:50.774Z,78.98
2018-05-26T05:49:50.833Z,79.23
2018-05-26T05:50:50.661Z,79.23
2018-05-26T05:51:50.630Z,79.13
2018-05-26T05:52:50.600Z,78.88
2018-05-26T05:53:50.617Z,78.40
2018-05-26T05:54:50.631Z,78.50
2018-05-26T05:55:50.630Z,78.79
2018-05-26T05:56:50.634Z,78.79
2018-05-26T05:57:50.682Z,78.69
2018-05-26T05:58:50.639Z,78.59
2018-05-26T05:59:50.646Z,78.11
2018-05-26T06:00:50.741Z,77.92
2018-05-26T06:01:50.640Z,77.83
2018-05-26T06:02:50.787Z,77.34
2018-05-26T06:03:50.666Z,77.34
2018-05-26T06:04:50.669Z,77.19
2018-05-26T06:05:51.104Z,77.00
2018-05-26T06:06:50.702Z,77.34
2018-05-26T06:07:50.695Z,77.28
2018-05-26T06:08:50.708Z,76.90
2018-05-26T06:09:50.715Z,76.90
2018-05-26T06:10:50.707Z,77.38
2018-05-26T06:11:50.741Z,77.19
2018-05-26T06:12:50.722Z,76.71
2018-05-26T06:13:51.105Z,76.42
2018-05-26T06:14:50.675Z,76.42
2018-05-26T06:15:50.667Z,76.51
2018-05-26T06:16:50.749Z,76.23
2018-05-26T06:17:50.731Z,76.13
2018-05-26T06:18:50.662Z,76.13
2018-05-26T06:19:51.248Z,75.65
2018-05-26T06:20:50.857Z,75.74
2018-05-26T06:21:50.923Z,75.65
2018-05-26T06:22:50.577Z,76.13
2018-05-26T06:23:50.937Z,75.68
2018-05-26T06:24:50.869Z,75.49
2018-05-26T06:25:50.965Z,75.49
2018-05-26T06:26:50.769Z,75.84
2018-05-26T06:27:50.511Z,76.13
2018-05-26T06:28:50.797Z,76.13
2018-05-26T06:29:51.271Z,75.59
2018-05-26T06:30:51.084Z,75.78
2018-05-26T06:31:51.290Z,75.59
2018-05-26T06:32:51.070Z,75.01
2018-05-26T06:33:50.786Z,75.01
2018-05-26T06:34:50.785Z,74.62
2018-05-26T06:35:50.832Z,74.33
2018-05-26T06:36:50.823Z,74.14
2018-05-26T06:37:50.819Z,74.52
2018-05-26T06:38:50.865Z,73.85
2018-05-26T06:39:50.818Z,73.95
2018-05-26T06:40:50.820Z,73.95
2018-05-26T06:41:50.823Z,74.43
2018-05-26T06:42:50.454Z,74.24
2018-05-26T06:43:50.679Z,74.33
2018-05-26T06:44:50.758Z,73.95
2018-05-26T06:45:50.733Z,74.52
2018-05-26T06:46:50.725Z,75.10
2018-05-26T06:47:51.111Z,74.24
2018-05-26T06:48:51.253Z,73.66
2018-05-26T06:49:50.803Z,73.95
2018-05-26T06:50:50.753Z,73.75
2018-05-26T06:51:50.776Z,73.99
2018-05-26T06:52:51.099Z,73.79
2018-05-26T06:53:51.114Z,73.31
2018-05-26T06:54:51.105Z,73.21
2018-05-26T06:55:50.464Z,73.60
2018-05-26T06:56:51.254Z,73.41
2018-05-26T06:57:51.103Z,72.92
2018-05-26T06:58:51.084Z,72.83
2018-05-26T06:59:51.106Z,72.73
2018-05-26T07:00:52.774Z,73.21
2018-05-26T07:01:51.112Z,72.83
2018-05-26T07:02:51.142Z,73.89
2018-05-26T07:03:50.558Z,73.60
2018-05-26T07:04:51.057Z,72.96
2018-05-26T07:05:51.141Z,72.63
2018-05-26T07:06:51.123Z,72.58
2018-05-26T07:07:51.096Z,72.96
2018-05-26T07:08:50.479Z,71.90
2018-05-26T07:09:51.098Z,71.90
2018-05-26T07:10:51.142Z,72.58
2018-05-26T07:11:51.023Z,72.48
2018-05-26T07:12:51.073Z,72.67
2018-05-26T07:13:51.122Z,72.09
2018-05-26T07:14:51.070Z,71.80
2018-05-26T07:15:51.060Z,71.51
2018-05-26T07:16:50.484Z,71.51
2018-05-26T07:17:51.123Z,71.61
2018-05-26T07:18:51.091Z,71.12
2018-05-26T07:19:51.079Z,71.32
2018-05-26T07:20:51.155Z,71.74
2018-05-26T07:21:51.094Z,71.64
2018-05-26T07:22:51.144Z,71.74
2018-05-26T07:23:51.127Z,71.26
2018-05-26T07:24:51.123Z,71.36
2018-05-26T07:25:52.912Z,71.64
2018-05-26T07:26:51.825Z,72.03
2018-05-26T07:27:50.579Z,72.03
2018-05-26T07:28:51.161Z,71.36
2018-05-26T07:29:51.117Z,71.45
2018-05-26T07:30:51.097Z,70.58
2018-05-26T07:31:51.119Z,70.68
2018-05-26T07:32:51.067Z,70.39
2018-05-26T07:33:51.205Z,70.87
2018-05-26T07:34:51.142Z,70.52
2018-05-26T07:35:50.608Z,70.20
2018-05-26T07:36:51.124Z,70.23
2018-05-26T07:37:51.305Z,70.14
2018-05-26T07:38:51.384Z,70.04
2018-05-26T07:39:51.068Z,69.90
2018-05-26T07:40:53.291Z,70.72
2018-05-26T07:41:51.115Z,70.23
2018-05-26T07:42:51.098Z,69.94
2018-05-26T07:43:51.076Z,70.04
2018-05-26T07:44:51.089Z,69.84
2018-05-26T07:45:52.872Z,69.17
2018-05-26T07:46:51.096Z,68.88
2018-05-26T07:47:50.552Z,68.40
2018-05-26T07:48:51.098Z,68.10
2018-05-26T07:49:51.118Z,68.10
2018-05-26T07:50:51.740Z,68.10
2018-05-26T07:51:50.724Z,68.30
2018-05-26T07:52:53.313Z,68.14
2018-05-26T07:53:51.166Z,68.14
2018-05-26T07:54:51.184Z,68.24
2018-05-26T07:55:51.175Z,68.14
2018-05-26T07:56:51.163Z,68.62
2018-05-26T07:57:51.171Z,68.52
2018-05-26T07:58:51.108Z,68.52
2018-05-26T07:59:51.123Z,68.91
2018-05-26T08:00:51.098Z,69.20
2018-05-26T08:01:51.379Z,68.52
2018-05-26T08:02:51.646Z,67.98
2018-05-26T08:03:51.111Z,66.69
2018-05-26T08:04:51.138Z,65.63
2018-05-26T08:05:51.115Z,65.66
2018-05-26T08:06:51.090Z,65.85
2018-05-26T08:07:51.129Z,66.33
2018-05-26T08:08:51.096Z,66.43
2018-05-26T08:09:51.156Z,67.21
2018-05-26T08:10:51.149Z,67.11
2018-05-26T08:11:51.129Z,67.40
2018-05-26T08:12:51.114Z,66.82
2018-05-26T08:13:51.097Z,65.95
2018-05-26T08:14:51.086Z,65.27
2018-05-26T08:15:53.064Z,65.27
2018-05-26T08:16:51.181Z,64.98
2018-05-26T08:17:51.113Z,64.53
2018-05-26T08:18:51.752Z,63.56
2018-05-26T08:19:51.346Z,63.82
2018-05-26T08:20:51.129Z,63.92
2018-05-26T08:21:51.139Z,64.40
2018-05-26T08:22:51.095Z,64.53
2018-05-26T08:23:51.157Z,64.62
2018-05-26T08:24:51.155Z,64.34
2018-05-26T08:25:53.170Z,63.56
2018-05-26T08:26:51.147Z,63.08
2018-05-26T08:27:51.133Z,62.11
2018-05-26T08:28:52.938Z,62.01
2018-05-26T08:29:51.802Z,62.01
2018-05-26T08:30:51.181Z,62.30
2018-05-26T08:31:51.163Z,62.40
2018-05-26T08:32:51.357Z,62.30
2018-05-26T08:33:50.839Z,62.59
2018-05-26T08:34:51.099Z,62.24
2018-05-26T08:35:51.173Z,62.04
2018-05-26T08:36:51.109Z,61.08
2018-05-26T08:37:51.144Z,61.27
2018-05-26T08:38:51.662Z,61.24
2018-05-26T08:39:50.789Z,61.82
2018-05-26T08:40:51.088Z,62.24
2018-05-26T08:41:51.282Z,61.95
2018-05-26T08:42:50.795Z,61.18
2018-05-26T08:43:51.156Z,60.88
2018-05-26T08:44:51.179Z,59.75
2018-05-26T08:45:51.156Z,60.33
2018-05-26T08:46:51.172Z,61.08
2018-05-26T08:47:51.180Z,61.46
2018-05-26T08:48:51.657Z,61.85
2018-05-26T08:49:51.802Z,61.30
2018-05-26T08:50:51.164Z,60.62
2018-05-26T08:51:51.176Z,60.14
2018-05-26T08:52:51.667Z,60.24
2018-05-26T08:53:51.671Z,60.04
2018-05-26T08:54:51.087Z,60.33
2018-05-26T08:55:51.244Z,60.62
2018-05-26T08:56:51.228Z,61.21
2018-05-26T08:57:51.224Z,62.07
2018-05-26T08:58:51.594Z,62.07
2018-05-26T08:59:51.162Z,61.49
2018-05-26T09:00:51.366Z,60.33
2018-05-26T09:01:51.166Z,60.14
2018-05-26T09:02:51.410Z,60.43
2018-05-26T09:03:51.252Z,59.88
2018-05-26T09:04:51.372Z,59.56
2018-05-26T09:05:51.632Z,59.46
2018-05-26T09:06:51.228Z,60.72
2018-05-26T09:07:51.260Z,61.01
2018-05-26T09:08:51.267Z,61.11
2018-05-26T09:09:51.779Z,61.30
2018-05-26T09:10:50.896Z,61.21
2018-05-26T09:11:51.210Z,61.62
2018-05-26T09:12:51.323Z,59.00
2018-05-26T09:13:51.314Z,58.23
2018-05-26T09:14:51.299Z,58.72
2018-05-26T09:15:51.343Z,58.72
2018-05-26T09:16:51.760Z,58.72
2018-05-26T09:17:51.027Z,58.16
2018-05-26T09:18:51.594Z,57.78
2018-05-26T09:19:51.154Z,57.65
2018-05-26T09:20:51.217Z,57.58
2018-05-26T09:21:51.235Z,58.55
2018-05-26T09:22:51.681Z,57.75
2018-05-26T09:23:51.951Z,56.59
2018-05-26T09:24:51.084Z,56.51
2018-05-26T09:25:51.555Z,56.03
2018-05-26T09:26:51.544Z,55.35
2018-05-26T09:27:51.496Z,53.99
2018-05-26T09:28:51.569Z,54.09
2018-05-26T09:29:51.505Z,54.86
2018-05-26T09:30:51.478Z,55.64
2018-05-26T09:31:51.511Z,56.61
2018-05-26T09:32:51.423Z,56.23
2018-05-26T09:33:51.507Z,55.44
2018-05-26T09:34:51.476Z,56.03
2018-05-26T09:35:51.563Z,55.06
2018-05-26T09:36:51.553Z,54.21
2018-05-26T09:37:51.500Z,54.21
2018-05-26T09:38:51.488Z,54.41
2018-05-26T09:39:51.373Z,54.80
2018-05-26T09:40:53.150Z,54.70
2018-05-26T09:41:51.334Z,55.28
2018-05-26T09:42:51.425Z,55.77
2018-05-26T09:43:51.514Z,55.16
2018-05-26T09:44:51.432Z,55.08
2018-05-26T09:45:51.454Z,55.57
2018-05-26T09:46:51.633Z,55.28
2018-05-26T09:47:51.653Z,52.88
2018-05-26T09:48:53.471Z,51.50
2018-05-26T09:49:51.672Z,51.40
2018-05-26T09:50:51.724Z,52.37
2018-05-26T09:51:51.641Z,53.73
2018-05-26T09:52:51.676Z,53.05
2018-05-26T09:53:51.736Z,49.27
2018-05-26T09:54:51.935Z,49.85
2018-05-26T09:55:52.364Z,50.26
2018-05-26T09:56:51.104Z,50.26
2018-05-26T09:57:52.178Z,50.65
2018-05-26T09:58:51.647Z,50.74
2018-05-26T09:59:51.650Z,51.14
2018-05-26T10:00:51.665Z,51.04
2018-05-26T10:01:51.280Z,50.65
2018-05-26T10:02:51.877Z,50.84
2018-05-26T10:03:51.735Z,49.97
2018-05-26T10:04:51.677Z,50.58
2018-05-26T10:05:51.727Z,49.77
2018-05-26T10:06:51.739Z,50.16
2018-05-26T10:07:51.672Z,50.84
2018-05-26T10:08:51.655Z,51.43
2018-05-26T10:09:51.667Z,52.11
2018-05-26T10:10:51.709Z,50.87
2018-05-26T10:11:51.769Z,47.66
2018-05-26T10:12:51.704Z,46.50
2018-05-26T10:13:51.701Z,46.48
2018-05-26T10:14:51.678Z,46.09
2018-05-26T10:15:51.676Z,45.24
2018-05-26T10:16:51.825Z,45.72
2018-05-26T10:17:51.712Z,45.53
2018-05-26T10:18:51.714Z,45.92
2018-05-26T10:19:51.720Z,45.53
2018-05-26T10:20:51.659Z,45.43
2018-05-26T10:21:51.640Z,45.14
2018-05-26T10:22:51.692Z,45.53
2018-05-26T10:23:51.663Z,45.82
2018-05-26T10:24:51.662Z,45.94
2018-05-26T10:25:51.716Z,45.07
2018-05-26T10:26:51.741Z,44.00
2018-05-26T10:27:51.601Z,44.19
2018-05-26T10:28:51.844Z,44.87
2018-05-26T10:29:52.197Z,44.68
2018-05-26T10:30:51.721Z,44.09
2018-05-26T10:31:51.755Z,44.09
2018-05-26T10:32:51.760Z,44.12
2018-05-26T10:33:51.718Z,43.92
2018-05-26T10:34:51.762Z,44.79
2018-05-26T10:35:51.757Z,45.26
2018-05-26T10:36:51.712Z,45.09
2018-05-26T10:37:51.677Z,45.17
2018-05-26T10:38:51.656Z,45.28
2018-05-26T10:39:51.688Z,43.73
2018-05-26T10:40:51.700Z,43.34
2018-05-26T10:41:51.688Z,42.56
2018-05-26T10:42:51.860Z,42.36
2018-05-26T10:43:51.697Z,42.08
2018-05-26T10:44:51.707Z,42.08
2018-05-26T10:45:51.685Z,42.46
2018-05-26T10:46:51.690Z,43.54
2018-05-26T10:47:51.681Z,43.63
2018-05-26T10:48:51.263Z,43.34
2018-05-26T10:49:51.697Z,43.92
2018-05-26T10:50:51.679Z,42.27
2018-05-26T10:51:51.679Z,41.32
2018-05-26T10:52:51.866Z,40.44
2018-05-26T10:53:51.724Z,40.34
2018-05-26T10:54:51.714Z,40.34
2018-05-26T10:55:51.769Z,41.32
2018-05-26T10:56:52.221Z,42.19
2018-05-26T10:57:51.782Z,42.29
2018-05-26T10:58:51.668Z,42.29
2018-05-26T10:59:53.755Z,42.10
2018-05-26T11:00:51.727Z,41.80
2018-05-26T11:01:51.405Z,40.95
2018-05-26T11:02:51.777Z,39.98
2018-05-26T11:03:51.690Z,39.10
2018-05-26T11:04:52.178Z,38.81
2018-05-26T11:05:52.336Z,38.52
2018-05-26T11:06:51.375Z,37.64
2018-05-26T11:07:51.737Z,36.87
2018-05-26T11:08:51.774Z,36.77
2018-05-26T11:09:51.792Z,36.96
2018-05-26T11:10:51.790Z,37.06
2018-05-26T11:11:52.232Z,37.37
2018-05-26T11:12:51.745Z,38.44
2018-05-26T11:13:51.858Z,38.81
2018-05-26T11:14:51.638Z,39.10
2018-05-26T11:15:51.805Z,39.12
2018-05-26T11:16:51.437Z,39.51
2018-05-26T11:17:51.910Z,39.80
2018-05-26T11:18:51.915Z,39.62
2018-05-26T11:19:51.877Z,39.04
2018-05-26T11:20:51.963Z,37.99
2018-05-26T11:21:51.984Z,36.90
2018-05-26T11:22:52.010Z,36.22
2018-05-26T11:23:51.566Z,35.93
2018-05-26T11:24:52.068Z,35.73
2018-05-26T11:25:51.996Z,35.83
2018-05-26T11:26:52.074Z,35.53
2018-05-26T11:27:52.084Z,35.53
2018-05-26T11:28:52.178Z,35.44
2018-05-26T11:29:52.105Z,35.73
2018-05-26T11:30:52.114Z,36.02
2018-05-26T11:31:52.443Z,36.72
2018-05-26T11:32:51.916Z,36.92
2018-05-26T11:33:52.399Z,36.72
2018-05-26T11:34:51.891Z,36.72
2018-05-26T11:35:52.174Z,37.02
2018-05-26T11:36:51.949Z,36.72
2018-05-26T11:37:52.222Z,36.04
2018-05-26T11:38:52.488Z,36.80
2018-05-26T11:39:52.208Z,36.82
2018-05-26T11:40:52.224Z,36.92
2018-05-26T11:41:52.225Z,35.16
2018-05-26T11:42:52.209Z,35.06
2018-05-26T11:43:52.237Z,35.16
2018-05-26T11:44:52.238Z,35.18
2018-05-26T11:45:52.486Z,34.40
2018-05-26T11:46:52.744Z,34.40
2018-05-26T11:47:52.239Z,34.89
2018-05-26T11:48:52.176Z,34.69
2018-05-26T11:49:52.203Z,34.42
2018-05-26T11:50:52.211Z,34.69
2018-05-26T11:51:52.210Z,34.32
2018-05-26T11:52:52.453Z,34.21
2018-05-26T11:53:52.259Z,34.31
2018-05-26T11:54:52.243Z,34.12
2018-05-26T11:55:52.273Z,34.21
2018-05-26T11:56:52.295Z,35.18
2018-05-26T11:57:52.261Z,34.31
2018-05-26T11:58:52.280Z,35.18
2018-05-26T11:59:52.251Z,34.40
2018-05-26T12:00:52.278Z,33.43
2018-05-26T12:01:52.308Z,33.64
2018-05-26T12:02:52.259Z,33.06
2018-05-26T12:03:52.258Z,33.25
2018-05-26T12:04:52.234Z,33.07
2018-05-26T12:05:52.271Z,32.87
2018-05-26T12:06:51.833Z,33.18
2018-05-26T12:07:52.234Z,32.58
2018-05-26T12:08:52.165Z,32.78
2018-05-26T12:09:52.235Z,33.07
2018-05-26T12:10:52.249Z,33.46
2018-05-26T12:11:52.734Z,33.75
2018-05-26T12:12:52.480Z,34.05
2018-05-26T12:13:52.510Z,34.06
2018-05-26T12:14:52.278Z,33.97
2018-05-26T12:15:52.301Z,33.87
2018-05-26T12:16:52.238Z,34.36
2018-05-26T12:17:52.308Z,33.36
2018-05-26T12:18:52.242Z,33.26
2018-05-26T12:19:54.048Z,33.26
2018-05-26T12:20:52.249Z,33.56
2018-05-26T12:21:52.725Z,33.28
2018-05-26T12:22:52.204Z,33.11
2018-05-26T12:23:52.228Z,32.50
2018-05-26T12:24:52.474Z,32.79
2018-05-26T12:25:52.774Z,32.89
2018-05-26T12:26:52.376Z,33.20
2018-05-26T12:27:52.259Z,33.20
2018-05-26T12:28:51.949Z,33.22
2018-05-26T12:29:52.255Z,31.96
2018-05-26T12:30:52.226Z,31.87
2018-05-26T12:31:52.341Z,31.36
2018-05-26T12:32:52.375Z,32.24
2018-05-26T12:33:52.325Z,32.06
2018-05-26T12:34:52.360Z,31.77
2018-05-26T12:35:52.400Z,32.24
2018-05-26T12:36:52.293Z,32.26
2018-05-26T12:37:52.407Z,32.16
2018-05-26T12:38:52.448Z,32.07
2018-05-26T12:39:52.441Z,32.07
2018-05-26T12:40:52.484Z,30.88
2018-05-26T12:41:52.983Z,31.18
2018-05-26T12:42:52.802Z,31.41
2018-05-26T12:43:52.809Z,31.88
2018-05-26T12:45:52.820Z,32.48
2018-05-26T12:46:52.824Z,31.42
2018-05-26T12:47:53.273Z,31.34
2018-05-26T12:48:53.003Z,30.77
2018-05-26T12:49:53.287Z,30.87
2018-05-26T12:50:52.749Z,31.73
2018-05-26T12:51:52.737Z,31.35
2018-05-26T12:52:52.742Z,31.83
2018-05-26T12:53:52.775Z,31.34
2018-05-26T12:54:52.765Z,31.35
2018-05-26T12:55:52.800Z,31.06